Date,TemperatureHighF,TemperatureAvgF,TemperatureLowF,DewpointHighF,DewpointAvgF,DewpointLowF,HumidityHigh,HumidityAvg,HumidityLow,PressureMaxIn,PressureMinIn,WindSpeedMaxMPH,WindSpeedAvgMPH,GustSpeedMaxMPH,PrecipitationSumIn
2012-1-14,62.1,57.5,52.0,31.5,22.0,18.5,36,26,19,30.05,30.03,4,2,4,0.00
2012-1-15,66.9,56.1,46.8,43.6,33.2,21.2,59,42,30,30.09,29.96,9,3,13,0.00
2012-1-16,71.2,59.0,47.5,48.3,42.3,37.1,68,55,41,30.05,29.95,11,5,14,0.00
2012-1-17,70.0,55.5,43.0,40.0,36.1,28.8,77,52,23,30.20,30.05,11,3,11,0.00
2012-1-18,71.8,56.3,43.7,37.5,34.2,27.3,69,46,19,30.25,30.08,9,3,11,0.00
2012-1-19,73.4,58.0,47.8,39.3,35.4,31.0,61,45,21,30.08,29.88,13,5,15,0.00
2012-1-20,77.2,58.9,44.2,39.9,35.3,26.3,71,45,16,29.98,29.88,11,3,12,0.00
2012-1-21,74.5,60.6,50.9,51.8,40.1,26.7,62,48,28,29.94,29.76,25,6,29,0.00
2012-1-22,70.7,59.1,47.7,32.9,27.4,18.6,55,32,14,30.08,29.93,10,4,11,0.00
2012-1-23,73.0,58.3,47.1,54.0,32.8,19.3,85,44,13,30.03,29.77,15,4,23,0.01
2012-1-24,70.7,60.7,51.6,46.6,37.2,22.9,82,47,22,30.14,29.85,25,10,27,0.00
2012-1-25,75.4,64.1,55.8,35.8,25.4,19.2,45,24,13,30.19,30.05,24,10,28,0.00
2012-1-26,80.8,63.7,50.9,40.9,35.5,32.5,57,37,18,30.09,29.87,11,4,12,0.00
2012-1-27,75.6,65.5,54.7,42.9,34.6,20.3,52,34,16,30.01,29.86,25,12,30,0.00
2012-1-28,72.7,64.3,58.1,22.3,18.0,16.3,21,17,12,30.19,30.01,29,15,29,0.00
2012-1-29,77.2,65.3,56.1,24.1,18.8,16.6,23,17,12,30.18,30.00,19,9,21,0.00
2012-1-30,79.9,63.3,51.3,27.3,20.0,13.4,31,19,12,30.00,29.84,11,3,13,0.00
2012-1-31,78.1,62.3,49.5,32.8,28.2,21.5,46,29,14,30.03,29.86,6,3,9,0.00
2012-2-1,76.5,60.6,45.0,36.1,29.1,22.1,66,32,18,30.07,29.87,11,4,11,0.00
2012-2-2,73.4,59.2,44.4,40.0,27.0,16.8,66,35,12,29.94,29.83,19,6,24,0.00
2012-2-3,70.3,57.8,44.6,31.6,22.7,16.0,47,27,14,30.02,29.92,16,5,18,0.00
2012-2-4,73.0,63.2,48.2,36.7,26.4,20.7,52,27,14,30.03,29.93,15,5,19,0.00
2012-2-5,73.4,60.9,48.6,35.4,26.6,20.5,57,29,14,30.02,29.90,14,5,17,0.00
2012-2-6,74.3,63.1,50.0,36.5,26.1,18.5,46,26,13,29.99,29.89,13,4,15,0.00
2012-2-7,71.4,60.8,51.8,44.4,32.8,25.6,56,36,18,29.93,29.81,13,5,14,0.00
2012-2-8,75.7,64.2,55.6,53.6,46.8,39.1,91,57,27,30.04,29.88,12,4,20,0.00
2012-2-9,83.3,69.5,54.1,46.9,34.5,25.7,66,31,13,30.10,29.98,17,5,22,0.00
2012-2-10,86.7,67.9,50.7,41.2,35.2,25.8,64,34,13,30.08,29.90,9,3,11,0.00
2012-2-11,78.8,64.6,53.6,46.2,38.3,33.7,60,39,24,29.91,29.72,15,5,18,0.00
2012-2-12,70.5,59.5,50.7,47.8,42.2,39.0,79,55,32,29.89,29.79,19,6,21,0.00
2012-2-13,71.2,59.1,48.0,52.9,45.5,33.8,85,63,36,29.91,29.76,15,6,18,0.00
2012-2-14,66.9,57.3,49.5,45.1,37.5,31.7,77,49,32,29.98,29.79,19,7,24,0.00
2012-2-15,70.5,57.8,47.5,51.9,43.3,37.5,88,62,31,29.97,29.82,20,7,24,0.00
2012-2-16,68.9,55.1,47.1,52.1,45.8,38.6,99,74,33,29.97,29.87,19,9,24,0.07
2012-2-17,75.2,57.6,42.8,51.2,41.3,25.7,99,65,16,30.08,29.96,14,5,15,0.01
2012-2-18,73.8,59.7,46.9,51.4,46.5,41.3,99,67,31,30.07,29.88,13,5,16,0.00
2012-2-19,71.4,60.1,50.5,46.9,42.3,29.0,85,56,21,29.94,29.80,17,6,17,0.00
2012-2-20,75.2,61.0,46.2,44.4,39.5,28.5,84,49,19,30.04,29.93,8,4,14,0.00
2012-2-21,76.5,64.4,54.1,40.4,23.9,17.1,49,23,13,30.09,29.96,17,7,23,0.00
2012-2-22,81.9,65.8,48.9,48.2,30.4,18.9,55,30,13,30.05,29.82,16,5,18,0.00
2012-2-23,84.6,68.8,52.9,52.7,43.2,22.3,63,42,15,29.82,29.69,12,4,17,0.00
2012-2-24,81.1,70.4,60.1,31.7,22.9,16.3,33,17,11,30.02,29.80,18,6,21,0.00
2012-2-25,85.8,67.4,48.9,39.6,29.1,19.9,50,26,12,29.98,29.77,8,3,10,0.00
2012-2-26,83.3,66.4,54.0,36.2,27.9,16.9,45,26,11,29.83,29.69,17,5,19,0.00
2012-2-27,72.0,60.6,50.7,50.6,40.9,29.3,85,52,22,29.86,29.67,27,9,29,0.00
2012-2-28,66.4,56.3,49.8,37.9,35.2,31.3,63,46,28,30.15,29.86,24,6,28,0.00
2012-2-29,71.1,57.5,43.5,40.7,34.5,27.8,69,45,20,30.16,30.00,9,3,11,0.00
2012-3-1,73.6,60.9,50.4,46.4,40.9,36.3,70,49,32,30.02,29.81,18,7,21,0.00
2012-3-2,67.6,59.3,48.7,41.9,26.3,16.7,74,34,15,30.21,29.87,30,12,34,0.05
2012-3-3,75.0,62.6,47.1,24.3,18.2,12.2,26,18,12,30.29,30.14,17,7,21,0.00
2012-3-4,84.2,68.9,57.4,38.0,24.9,18.0,35,20,11,30.15,29.92,17,6,18,0.00
2012-3-5,90.3,70.0,57.6,40.0,28.9,19.5,45,23,11,29.96,29.82,14,5,17,0.00
2012-3-6,84.6,69.1,56.3,44.6,31.1,21.7,47,25,14,29.83,29.53,23,10,32,0.01
2012-3-7,64.0,56.9,45.7,37.5,23.4,16.0,60,30,17,30.06,29.64,24,10,29,0.00
2012-3-8,75.9,60.9,42.6,31.9,22.9,14.5,54,26,13,30.21,30.05,17,7,20,0.00
2012-3-9,81.5,67.2,55.8,42.2,26.3,17.4,47,24,11,30.19,29.93,18,6,21,0.00
2012-3-10,83.7,67.4,54.9,42.6,29.4,22.0,52,27,11,29.98,29.84,14,6,16,0.00
2012-3-11,85.3,68.4,52.9,31.7,27.8,20.6,42,24,11,29.92,29.79,13,5,14,0.00
2012-3-12,84.9,68.0,54.0,35.1,27.3,19.9,41,23,11,29.93,29.80,12,4,14,0.00
2012-3-13,85.3,67.7,52.3,46.9,35.5,27.3,61,34,14,29.93,29.80,12,3,12,0.00
2012-3-14,83.3,68.3,52.3,47.5,38.6,28.3,69,38,14,29.98,29.88,8,3,11,0.00
2012-3-15,87.1,70.6,53.2,50.2,39.6,31.9,63,35,15,29.99,29.84,8,2,9,0.00
2012-3-16,88.2,71.2,56.1,49.7,44.9,38.8,63,41,18,29.88,29.71,11,4,13,0.01
2012-3-17,75.0,65.2,54.0,53.2,47.3,40.8,74,53,36,29.73,29.56,18,5,24,0.02
2012-3-18,62.2,54.7,48.4,40.5,35.8,29.2,68,50,31,29.86,29.58,28,13,32,0.00
2012-3-19,63.5,52.8,43.3,45.4,40.1,33.6,78,63,41,29.95,29.81,16,6,18,0.00
2012-3-20,72.7,60.5,46.2,47.6,37.1,18.2,79,48,13,30.10,29.95,14,5,16,0.00
2012-3-21,82.2,65.5,49.5,45.2,37.5,27.3,67,40,15,30.03,29.83,11,3,14,0.00
2012-3-22,89.1,71.4,54.9,47.1,38.4,28.9,59,34,12,29.85,29.71,9,3,14,0.00
2012-3-23,86.9,71.8,57.9,45.3,38.0,32.8,47,31,15,29.90,29.80,14,6,18,0.00
2012-3-26,76.5,64.1,53.6,44.8,40.2,36.6,60,43,25,30.03,29.85,15,5,15,0.00
2012-3-27,82.0,68.1,53.1,45.9,40.5,29.2,62,40,15,29.96,29.82,9,2,9,0.00
2012-3-28,84.7,70.7,54.9,45.2,37.2,23.1,61,33,13,29.92,29.80,11,3,11,0.00
2012-3-29,88.2,73.4,57.7,52.4,44.0,25.1,62,37,20,29.91,29.75,10,3,10,0.00
2012-3-30,91.8,74.3,59.9,57.6,47.4,26.5,62,41,19,29.87,29.74,11,3,11,0.00
2012-3-31,91.4,74.9,60.8,46.0,37.3,23.8,56,28,12,29.83,29.69,21,6,21,0.00
2012-4-1,75.0,63.9,56.5,48.9,39.0,22.3,65,43,15,29.88,29.77,26,12,26,0.00
2012-4-2,79.0,67.8,53.4,42.8,25.5,16.3,62,24,12,29.92,29.77,27,10,27,0.00
2012-4-3,84.6,69.1,53.1,37.6,25.5,16.6,36,21,11,29.92,29.76,16,5,100,0.00
2012-4-4,90.9,72.9,58.3,44.0,30.4,21.8,36,22,11,29.86,29.70,11,5,14,0.00
2012-4-5,88.2,72.4,60.3,40.8,29.1,20.8,42,21,12,29.79,29.66,10,4,14,0.00
2012-4-6,79.3,67.1,56.8,38.1,24.6,16.3,46,22,12,30.01,29.78,24,11,31,0.00
2012-4-7,88.2,71.6,57.7,38.7,25.3,16.3,35,19,11,30.00,29.87,15,5,15,0.00
2012-4-8,92.1,74.3,54.9,40.3,32.1,18.2,47,24,11,29.96,29.83,10,2,10,0.00
2012-4-9,95.4,76.7,61.5,43.5,34.7,27.3,38,23,11,29.89,29.73,10,3,13,0.00
2012-4-10,91.6,76.6,61.5,48.7,39.1,29.8,49,28,12,29.78,29.63,18,8,27,0.00
2012-4-11,78.1,67.0,58.3,54.0,45.4,39.7,71,47,31,29.97,29.70,15,7,18,0.00
2012-4-12,76.1,64.9,54.5,45.4,39.6,33.1,67,42,22,30.04,29.88,18,8,22,0.00
2012-4-13,80.6,65.3,54.7,47.0,39.6,23.4,59,42,12,29.88,29.59,25,7,27,0.00
2012-4-14,69.6,58.6,48.4,40.7,37.4,31.9,67,47,27,29.96,29.71,33,11,33,0.00
2012-4-15,78.3,63.2,47.7,47.4,40.9,36.5,72,47,24,30.06,29.93,14,4,14,0.00
2012-4-16,88.5,72.0,54.3,48.3,43.6,37.0,63,39,17,30.06,29.90,10,4,12,0.00
2012-4-17,92.8,77.3,59.9,54.6,43.4,31.3,54,33,12,29.94,29.78,10,3,13,0.00
2012-4-18,97.3,79.2,62.4,55.2,43.3,35.9,47,30,12,29.85,29.69,11,4,14,0.00
2012-4-19,96.3,80.6,65.1,54.0,42.3,29.9,43,27,13,29.83,29.71,8,4,11,0.00
2012-4-20,102.9,83.8,67.8,58.2,47.5,35.1,52,31,11,29.87,29.71,10,3,13,0.00
2012-4-21,103.3,87.1,71.4,58.5,50.8,44.1,49,31,14,29.80,29.66,10,4,10,0.00
2012-4-22,106.3,87.9,73.0,54.4,45.8,35.2,36,24,12,29.79,29.65,11,4,15,0.00
2012-4-23,91.9,81.5,69.4,53.9,45.9,29.0,48,30,15,29.80,29.69,22,9,24,0.01
2012-4-24,91.0,77.2,60.8,53.4,48.5,42.1,63,39,21,29.90,29.73,14,3,14,0.00
2012-4-25,90.5,80.7,71.8,58.2,49.9,40.8,53,35,21,29.80,29.64,8,4,11,0.00
2012-4-26,82.2,72.5,61.2,60.9,53.0,48.4,92,53,32,29.89,29.68,17,7,23,0.05
2012-4-27,87.1,74.1,60.8,55.1,51.3,47.6,70,47,28,29.92,29.73,13,6,14,0.00
2012-4-28,96.4,79.8,62.8,56.4,46.6,28.2,60,36,11,29.74,29.57,13,4,15,0.00
2012-4-29,95.2,80.7,69.4,55.8,50.2,45.3,53,36,22,29.77,29.63,14,6,17,0.00
2012-4-30,95.4,79.9,66.9,57.1,50.0,36.8,60,39,13,29.84,29.69,14,5,14,0.00
2012-5-1,95.2,80.2,68.0,58.4,48.5,36.2,68,38,13,29.74,29.59,20,8,20,0.00
2012-5-2,88.5,76.4,65.1,60.7,56.5,48.1,80,53,31,29.77,29.65,14,5,15,0.00
2012-5-3,92.5,78.1,65.1,60.0,54.8,49.1,67,47,24,29.84,29.72,10,4,13,0.00
2012-5-4,95.4,79.8,63.1,54.0,45.7,36.5,57,34,13,29.88,29.74,11,4,13,0.00
2012-5-5,95.4,79.5,66.0,54.3,42.1,28.3,51,29,11,29.83,29.70,11,4,14,0.00
2012-5-6,95.7,79.0,62.8,58.6,45.7,33.3,61,34,13,29.80,29.68,9,4,10,0.00
2012-5-7,95.7,80.7,64.0,56.1,41.2,21.6,56,30,11,29.80,29.66,21,6,23,0.00
2012-5-8,93.6,81.7,69.3,48.9,32.5,17.5,41,18,11,29.75,29.68,17,5,21,0.20
2012-5-9,101.7,84.2,63.7,47.1,37.7,24.8,44,21,11,29.72,29.60,22,6,27,0.01
2012-5-10,100.4,84.5,70.9,54.2,44.6,35.2,45,27,11,29.75,29.58,10,5,14,0.00
2012-5-11,99.0,83.5,66.9,54.8,43.3,32.6,46,27,11,29.77,29.64,8,5,11,0.00
2012-5-12,102.0,85.7,69.6,55.1,40.7,22.0,35,22,11,29.88,29.75,11,4,12,0.00
2012-5-13,104.2,87.7,69.3,61.9,48.1,35.8,46,28,11,29.84,29.68,8,3,10,0.00
2012-5-14,111.6,92.0,72.7,52.6,44.2,35.2,43,21,11,29.79,29.61,17,5,20,0.00
2012-5-15,105.3,89.9,77.0,47.9,42.0,29.4,34,20,11,29.71,29.56,10,5,12,0.00
2012-5-16,106.7,89.5,69.1,56.9,45.7,34.9,60,26,11,29.72,29.58,9,4,9,0.00
2012-5-17,105.6,88.6,73.2,57.8,47.0,34.0,51,26,11,29.69,29.53,15,8,20,0.00
2012-5-18,97.5,86.3,70.3,63.1,42.0,28.3,75,26,11,29.65,29.53,16,8,21,0.00
2012-5-19,100.9,83.8,66.4,58.0,46.4,35.1,56,31,11,29.75,29.63,8,3,11,0.00
2012-5-20,105.3,88.3,74.1,59.1,47.6,37.5,51,27,12,29.78,29.65,8,3,10,0.00
2012-5-21,108.7,92.9,74.7,50.0,42.7,34.9,37,19,11,29.76,29.63,8,4,11,0.00
2012-5-22,106.9,91.4,75.6,52.4,42.5,35.4,36,20,11,29.71,29.52,12,4,100,0.00
2012-5-23,103.8,88.3,74.8,62.2,52.8,39.2,57,32,14,29.56,29.39,20,7,21,0.00
2012-5-24,93.2,82.2,73.0,63.6,60.0,51.9,69,49,27,29.53,29.38,20,11,24,0.00
2012-5-25,89.6,76.0,63.9,62.6,54.7,40.7,79,51,25,29.66,29.44,24,13,27,0.00
2012-5-26,82.9,69.1,56.5,43.6,38.1,28.2,55,35,14,29.87,29.66,27,10,33,0.02
2012-5-27,90.9,76.4,60.4,52.4,39.9,28.2,60,31,11,29.89,29.77,11,5,30,0.01
2012-5-28,98.4,82.0,62.8,46.8,39.7,29.3,47,25,11,29.83,29.70,8,3,10,0.00
2012-5-29,101.5,84.8,67.1,49.2,39.9,28.3,46,23,11,29.83,29.70,11,4,11,0.00
2012-5-30,101.8,85.7,69.4,54.2,41.5,29.3,42,23,11,29.82,29.66,11,3,15,0.00
2012-5-31,112.8,91.1,70.7,60.0,49.7,35.5,57,29,11,29.71,29.53,11,4,18,0.00
2012-6-1,112.8,94.1,75.7,62.8,48.4,37.9,41,23,11,29.64,29.50,12,5,14,0.00
2012-6-2,105.1,89.7,75.0,62.9,51.5,40.2,49,29,13,29.69,29.56,20,9,21,0.00
2012-6-3,100.4,86.8,74.1,61.4,52.8,35.8,53,34,11,29.74,29.61,17,10,26,0.00
2012-6-4,101.8,87.6,75.2,65.2,57.2,44.4,57,38,15,29.75,29.61,13,7,21,0.00
2012-6-5,99.0,84.6,72.9,55.1,44.0,29.0,49,27,11,29.76,29.60,15,7,21,0.00
2012-6-6,100.4,85.1,70.9,56.8,42.4,31.4,54,26,11,29.67,29.56,14,5,14,0.00
2012-6-7,103.1,86.2,69.8,62.8,51.1,35.1,77,35,11,29.71,29.60,11,5,11,0.00
2012-6-8,103.8,87.9,71.6,47.6,41.1,30.5,38,21,11,29.70,29.56,13,6,21,0.00
2012-6-9,103.6,87.6,73.9,57.8,51.6,41.6,55,32,14,29.63,29.47,13,6,14,0.00
2012-6-10,102.9,88.3,73.6,64.8,50.5,35.9,57,31,11,29.70,29.57,9,4,11,0.00
2012-6-11,106.7,88.9,73.0,68.5,51.7,35.1,80,35,11,29.78,29.67,11,4,17,0.00
2012-6-12,107.4,90.8,72.3,52.5,40.2,29.9,38,18,11,29.79,29.62,9,4,11,0.00
2012-6-13,107.8,92.0,76.6,52.4,43.4,27.4,36,20,11,29.65,29.49,14,4,14,0.00
2012-6-14,100.8,88.2,76.1,59.9,49.7,35.1,54,29,11,29.64,29.54,21,9,24,0.00
2012-6-15,98.1,85.9,75.4,64.1,52.5,36.7,48,33,13,29.66,29.55,21,10,25,0.00
2012-6-16,103.6,87.2,72.5,55.0,48.5,35.4,46,29,11,29.75,29.62,9,4,11,0.00
2012-6-17,110.7,93.0,75.2,54.3,48.3,41.9,39,24,11,29.76,29.59,9,3,10,0.00
2012-6-18,111.6,96.8,78.8,56.4,46.1,28.3,38,20,11,29.66,29.52,20,8,26,0.00
2012-6-19,108.0,93.7,79.7,45.7,36.3,24.6,21,14,11,29.62,29.48,22,10,29,0.00
2012-6-20,109.2,91.8,76.1,55.5,40.6,24.7,35,18,11,29.62,29.53,12,4,14,0.00
2012-6-21,107.6,91.5,72.5,68.3,56.3,41.0,62,34,11,29.70,29.57,18,6,20,0.00
2012-6-22,103.8,90.3,75.2,66.5,44.4,29.3,64,23,11,29.69,29.52,17,6,18,0.00
2012-6-23,106.9,91.1,75.7,56.9,41.1,29.9,39,19,11,29.64,29.52,10,4,13,0.00
2012-6-24,106.0,91.2,77.2,68.9,54.8,35.8,58,32,11,29.76,29.63,17,6,19,0.00
2012-6-25,107.2,92.5,80.8,67.5,54.5,42.0,53,31,12,29.80,29.62,12,4,12,0.00
2012-6-26,109.0,94.8,81.5,56.7,45.2,35.5,32,20,11,29.69,29.52,9,4,13,0.00
2012-6-27,112.1,95.3,79.9,61.7,50.1,36.1,39,23,11,29.70,29.57,13,5,17,0.00
2012-6-28,110.1,96.2,83.3,70.0,61.0,43.0,51,34,11,29.81,29.68,14,6,20,0.00
2012-6-29,111.7,96.9,81.7,71.7,52.7,29.3,62,28,11,29.81,29.64,13,5,16,0.00
2012-6-30,109.4,95.1,79.9,70.7,41.7,24.2,44,18,11,29.75,29.57,12,5,20,0.00
2012-7-1,107.4,93.5,77.0,52.1,41.9,34.6,32,18,11,29.67,29.52,14,4,14,0.00
2012-7-2,101.3,89.9,77.2,74.7,63.4,42.0,77,43,25,29.70,29.58,20,9,21,0.00
2012-7-3,93.6,86.3,79.9,74.8,70.3,63.4,81,60,42,29.77,29.64,26,10,26,0.00
2012-7-4,95.4,87.7,82.2,74.1,67.0,57.5,75,51,36,29.77,29.67,14,7,15,0.00
2012-7-5,103.6,89.9,78.6,68.4,59.1,44.6,68,39,14,29.81,29.69,13,6,17,0.00
2012-7-6,107.8,94.2,84.9,61.2,49.5,42.1,39,23,11,29.83,29.70,11,4,14,0.00
2012-7-7,109.0,95.2,78.8,59.1,48.0,35.4,47,23,11,29.80,29.66,14,5,18,0.00
2012-7-8,113.2,97.4,80.1,58.3,47.7,32.3,36,20,11,29.79,29.64,14,5,16,0.00
2012-7-9,113.2,97.9,86.0,68.0,56.3,42.2,46,28,11,29.77,29.60,9,4,15,0.00
2012-7-10,115.2,99.5,85.1,69.8,61.4,42.8,57,32,11,29.70,29.52,13,6,15,0.00
2012-7-11,109.6,96.9,88.2,73.0,67.9,59.2,51,39,27,29.73,29.58,19,8,22,0.00
2012-7-12,100.8,89.4,78.3,77.5,71.8,66.2,91,59,34,29.78,29.63,27,6,27,0.15
2012-7-13,100.2,89.2,74.8,78.2,73.5,69.7,99,63,41,29.82,29.68,26,8,29,1.10
2012-7-14,104.2,90.2,78.1,76.6,73.4,64.0,94,62,30,29.81,29.67,18,6,21,0.00
2012-7-15,106.2,93.4,82.4,73.2,68.6,59.5,71,47,22,29.78,29.62,14,6,15,0.00
2012-7-16,108.1,93.2,82.0,71.3,61.5,36.8,65,40,11,29.73,29.59,13,5,16,0.00
2012-7-17,104.5,91.0,77.7,59.5,44.1,31.1,37,21,11,29.79,29.67,12,3,17,0.00
2012-7-18,107.6,94.0,79.9,58.8,46.2,35.4,38,21,11,29.81,29.67,7,4,11,0.00
2012-7-19,105.8,93.9,84.0,75.3,63.4,54.3,54,37,25,29.81,29.70,10,4,11,0.00
2012-7-20,109.8,96.2,82.2,71.4,65.3,51.6,55,38,15,29.82,29.66,9,3,12,0.00
2012-7-21,108.3,96.2,86.9,78.1,72.7,64.0,70,49,31,29.80,29.63,21,8,21,0.00
2012-7-22,107.4,91.4,86.5,73.9,70.0,67.0,64,50,32,29.78,29.67,17,7,22,0.00
2012-7-23,108.1,97.6,88.2,73.4,67.0,44.9,60,39,15,29.79,29.65,14,6,15,0.00
2012-7-24,109.9,97.4,86.4,68.4,58.6,42.1,45,29,11,29.77,29.63,11,4,13,0.00
2012-7-25,107.6,95.9,84.9,70.3,62.0,49.8,47,34,17,29.80,29.64,14,5,15,0.00
2012-7-26,108.3,94.8,82.2,75.2,65.5,45.6,70,42,14,29.78,29.63,12,5,13,0.00
2012-7-27,109.2,94.5,80.1,69.6,56.3,41.9,67,34,11,29.78,29.63,12,4,12,0.00
2012-7-28,104.2,91.6,79.9,73.5,69.5,58.6,74,50,29,29.79,29.70,24,8,26,0.00
2012-7-29,95.7,89.2,82.0,76.6,72.5,67.6,81,59,41,29.84,29.72,20,8,24,0.00
2012-7-30,96.4,84.6,77.4,78.0,75.2,71.3,93,75,45,29.85,29.77,14,6,18,0.02
2012-7-31,94.6,85.1,76.3,78.0,74.6,69.9,98,73,48,29.88,29.80,13,4,15,0.00
2012-8-1,103.8,91.8,82.0,78.4,71.8,60.4,87,55,26,29.89,29.75,12,4,13,0.00
2012-8-2,107.1,95.2,83.5,73.2,69.0,63.3,64,44,26,29.81,29.64,11,4,15,0.00
2012-8-3,110.1,96.9,85.5,70.3,56.9,41.9,54,30,11,29.72,29.55,11,4,14,0.00
2012-8-4,110.1,95.3,79.9,68.1,59.9,42.5,54,34,11,29.72,29.61,14,5,14,0.00
2012-8-5,109.4,94.2,79.9,76.6,66.5,51.6,58,42,15,29.84,29.70,21,6,25,0.00
2012-8-6,112.5,98.1,85.6,77.9,66.2,51.1,72,39,14,29.86,29.70,11,4,11,0.00
2012-8-7,111.6,99.1,88.9,72.2,68.6,52.3,55,39,15,29.81,29.64,16,5,19,0.00
2012-8-8,115.5,99.5,86.0,72.8,65.2,49.7,54,36,12,29.77,29.61,12,5,13,0.00
2012-8-9,108.7,96.6,87.1,75.4,72.2,69.1,65,47,31,29.79,29.61,21,7,30,0.00
2012-8-10,113.0,98.4,86.0,80.0,70.3,50.5,79,45,13,29.72,29.52,15,5,22,0.00
2012-8-11,115.3,102.0,90.9,71.8,64.4,49.7,49,32,12,29.66,29.52,14,4,16,0.00
2012-8-12,116.8,101.5,89.4,70.9,64.2,48.8,49,33,11,29.66,29.52,17,4,24,0.00
2012-8-13,117.1,100.2,86.9,71.8,63.2,49.1,53,33,11,29.67,29.53,23,4,28,0.00
2012-8-14,114.8,99.6,86.5,79.1,68.0,49.7,65,40,12,29.70,29.50,15,6,21,0.00
2012-8-15,101.7,92.7,86.5,78.3,72.4,66.1,68,53,34,29.72,29.61,30,8,30,0.00
2012-8-16,99.7,89.8,83.8,81.0,75.9,70.2,83,65,45,29.83,29.71,14,8,16,0.00
2012-8-17,94.6,87.0,81.1,79.6,75.7,73.3,87,70,54,29.87,29.76,13,7,17,0.00
2012-8-18,101.7,90.9,82.2,79.3,76.4,72.4,89,65,42,29.82,29.66,9,5,14,0.00
2012-8-19,105.8,93.5,81.9,79.3,74.9,70.4,87,58,34,29.76,29.59,13,5,17,0.00
2012-8-20,106.0,95.0,86.0,79.9,74.9,70.9,82,55,35,29.75,29.63,19,7,24,0.00
2012-8-21,105.3,94.1,85.6,80.7,74.4,69.0,81,55,35,29.75,29.62,21,8,30,0.00
2012-8-22,104.9,90.7,81.0,78.6,73.2,70.8,91,59,34,29.76,29.63,25,8,26,0.01
2012-8-23,102.9,90.3,79.2,76.9,73.8,69.5,88,62,35,29.79,29.64,12,6,19,0.00
2012-8-24,106.5,93.2,82.4,79.8,72.6,67.4,87,54,32,29.75,29.59,11,6,14,0.00
2012-8-25,106.7,93.8,80.4,71.1,65.8,60.9,59,41,25,29.70,29.56,14,6,19,0.00
2012-8-26,108.5,93.8,79.5,72.4,65.0,59.5,63,41,21,29.75,29.61,10,4,14,0.00
2012-8-27,112.3,95.6,80.6,72.5,60.2,41.9,69,36,11,29.81,29.65,8,3,8,0.00
2012-8-28,110.3,97.2,85.8,78.9,68.8,58.6,78,42,19,29.78,29.61,16,5,16,0.00
2012-8-29,105.4,95.2,85.5,81.8,73.8,67.6,88,53,33,29.75,29.62,16,8,19,0.00
2012-8-30,93.6,84.6,78.3,79.5,75.0,66.1,87,73,50,29.77,29.65,23,6,31,0.12
2012-8-31,102.4,90.5,79.7,81.0,75.8,71.5,90,65,40,29.78,29.65,11,5,14,0.00
2012-9-1,106.5,93.8,84.0,80.4,61.9,36.2,83,44,11,29.79,29.67,10,3,13,0.00
2012-9-2,110.7,96.1,81.1,71.9,53.6,41.9,55,27,11,29.78,29.64,11,4,16,0.00
2012-9-3,104.0,93.6,85.1,81.7,76.9,71.4,83,61,37,29.83,29.71,18,9,24,0.00
2012-9-4,103.6,91.2,84.7,78.7,75.8,72.7,77,62,41,29.88,29.76,18,8,21,0.00
2012-9-5,105.1,92.7,82.6,80.8,76.9,71.7,91,63,36,29.83,29.67,14,6,16,0.00
2012-9-6,102.4,92.0,83.8,80.9,75.6,69.4,90,61,37,29.80,29.69,16,7,22,0.00
2012-9-7,100.6,92.2,84.6,76.4,72.4,69.2,75,54,37,29.86,29.74,11,5,14,0.00
2012-9-8,102.7,93.4,85.5,75.1,72.8,70.2,71,52,38,29.80,29.68,14,5,15,0.00
2012-9-9,105.3,89.9,77.2,75.7,69.8,64.0,91,55,32,29.84,29.66,52,8,59,1.57
2012-9-10,86.4,80.3,76.1,77.8,73.8,69.5,93,81,68,29.86,29.74,11,5,17,0.20
2012-9-11,93.0,83.6,77.0,75.1,72.8,70.4,90,71,49,29.84,29.75,12,6,14,0.00
2012-9-12,99.9,87.8,78.1,75.4,72.3,67.6,88,63,37,29.89,29.76,9,3,12,0.00
2012-9-13,105.6,92.1,79.7,76.3,68.8,62.6,83,50,26,29.87,29.76,11,3,15,0.00
2012-9-14,102.6,92.4,82.9,68.3,53.4,35.9,53,29,11,29.91,29.81,25,11,30,0.00
2012-9-15,101.1,89.8,79.9,62.5,49.1,35.2,54,27,11,29.96,29.81,23,8,26,0.00
2012-9-16,102.2,88.5,77.5,76.4,69.6,62.5,82,56,34,29.92,29.79,11,4,15,0.00
2012-9-17,103.3,89.7,77.9,79.1,64.4,44.1,92,52,14,29.86,29.72,10,4,15,0.00
2012-9-18,106.3,90.4,76.6,79.1,63.2,43.3,93,50,12,29.85,29.75,9,3,11,0.00
2012-9-19,108.1,93.4,80.1,67.8,57.7,41.9,60,35,11,29.83,29.72,8,3,9,0.00
2012-9-20,110.3,94.1,80.2,66.0,54.6,41.9,51,30,11,29.81,29.68,9,3,10,0.00
2012-9-21,108.9,93.6,79.3,69.8,56.1,38.1,56,33,11,29.77,29.65,8,3,13,0.00
2012-9-22,110.5,93.9,79.9,61.5,54.0,42.1,50,30,11,29.78,29.67,7,2,9,0.00
2012-9-23,110.3,93.2,80.1,63.2,53.4,41.9,51,29,11,29.81,29.70,8,2,9,0.00
2012-9-24,106.2,90.6,78.1,81.8,61.3,43.1,97,47,12,29.83,29.66,11,6,14,0.00
2012-9-25,101.1,88.1,74.8,55.7,52.1,44.5,46,31,15,29.75,29.61,14,4,17,0.00
2012-9-26,101.7,87.7,71.1,71.2,53.3,44.5,68,34,15,29.72,29.63,8,3,11,0.00
2012-9-27,100.2,86.7,77.7,76.2,70.5,55.2,90,63,24,29.80,29.71,12,5,14,0.00
2012-9-28,100.2,87.1,75.6,75.4,68.1,59.6,89,58,27,29.80,29.57,8,3,10,0.00
2012-9-29,104.7,89.7,76.3,64.2,56.7,43.5,66,37,13,29.84,29.59,7,2,8,0.00
2012-9-30,107.8,90.9,73.6,62.6,49.4,35.5,52,29,11,29.84,29.70,16,3,16,0.00
2012-10-1,110.7,93.1,77.2,52.6,42.2,35.1,34,19,11,29.79,29.66,13,5,15,0.00
2012-10-2,109.6,91.3,76.1,60.4,46.1,35.1,47,24,11,29.74,29.62,8,3,9,0.00
2012-10-3,106.5,90.4,77.5,70.9,52.2,35.9,55,31,11,29.83,29.68,11,6,14,0.00
2012-10-4,101.1,87.0,75.7,55.4,45.6,35.1,42,26,11,29.92,29.79,11,3,11,0.00
2012-10-5,98.6,84.0,70.3,61.2,49.4,35.1,66,35,11,29.88,29.74,8,3,10,0.00
2012-10-6,98.8,83.7,70.9,69.9,57.6,49.2,76,44,21,29.79,29.66,9,3,11,0.00
2012-10-7,97.5,84.5,70.9,65.7,55.4,51.1,66,39,23,29.77,29.68,9,4,11,0.00
2012-10-8,96.8,83.8,72.9,75.4,66.7,57.6,86,58,36,29.80,29.68,9,4,11,0.00
2012-10-9,96.3,83.3,72.9,74.6,67.8,64.8,82,62,38,29.81,29.68,20,5,20,0.00
2012-10-10,93.0,81.8,72.0,71.7,65.2,53.6,88,60,35,29.80,29.66,14,6,17,0.00
2012-10-11,82.4,73.5,62.2,55.0,47.5,40.4,77,41,24,29.83,29.68,20,10,21,0.11
2012-10-12,79.0,68.7,56.8,56.5,50.8,45.5,86,56,31,29.99,29.82,11,4,19,0.01
2012-10-13,86.2,72.5,56.3,54.8,49.2,42.5,85,48,23,30.06,29.90,14,4,16,0.00
2012-10-14,94.6,80.8,65.8,53.4,49.4,44.0,57,35,23,29.96,29.80,16,4,19,0.00
2012-10-15,99.0,84.2,72.9,54.7,47.1,35.2,48,29,11,29.83,29.70,13,4,14,0.00
2012-10-16,98.2,81.5,67.1,59.0,52.7,42.8,69,40,18,29.76,29.61,7,3,11,0.00
2012-10-17,96.6,81.7,69.1,72.0,64.5,53.0,98,60,32,29.80,29.65,8,4,14,0.01
2012-10-18,94.1,82.6,74.8,74.6,69.5,63.8,93,67,42,29.92,29.80,11,4,13,0.00
2012-10-19,96.8,81.4,69.4,71.8,61.2,28.3,91,57,11,29.84,29.67,6,2,10,0.00
2012-10-20,97.0,80.9,66.9,71.3,62.4,52.7,81,56,32,29.72,29.57,17,5,17,0.00
2012-10-21,88.7,77.9,70.9,66.1,57.0,53.6,68,50,33,29.73,29.64,11,4,16,0.00
2012-10-22,88.3,76.1,64.0,67.2,58.7,47.0,78,56,35,29.81,29.70,15,3,15,0.00
2012-10-23,84.9,73.7,65.3,54.6,49.6,44.7,61,44,31,29.82,29.69,14,5,14,0.00
2012-10-24,83.3,71.3,61.3,48.6,42.9,33.8,54,38,17,29.87,29.74,13,6,15,0.00
2012-10-25,85.5,73.7,62.6,38.8,27.7,19.2,37,19,12,29.96,29.82,17,7,21,0.00
2012-10-26,80.6,72.8,66.9,27.3,21.6,16.9,18,15,11,29.99,29.85,26,13,30,0.00
2012-10-27,86.9,73.6,62.6,31.5,22.3,16.8,19,15,11,29.88,29.75,19,7,26,0.00
2012-10-28,91.6,74.6,59.7,37.5,28.3,21.7,33,19,11,29.88,29.80,13,4,14,0.00
2012-10-29,93.7,73.9,58.8,44.6,37.0,28.2,54,29,11,29.97,29.86,9,3,11,0.00
2012-10-30,94.1,74.9,60.1,41.4,35.8,27.6,49,27,11,29.93,29.80,8,3,11,0.00
2012-10-31,93.6,74.4,59.2,42.7,36.3,28.8,54,27,11,29.90,29.78,8,3,10,0.00
2012-11-1,90.7,73.7,59.4,59.3,42.8,33.2,75,36,13,29.86,29.74,6,3,8,0.00
2012-11-2,87.8,72.9,58.5,61.4,56.9,50.1,92,60,36,29.84,29.74,7,2,8,0.00
2012-11-3,91.8,74.6,60.6,57.7,45.1,30.9,80,42,12,29.91,29.81,7,2,10,0.00
2012-11-4,91.9,78.9,65.3,39.2,32.9,23.8,36,20,11,29.98,29.89,14,7,17,0.00
2012-11-5,93.6,79.7,68.4,41.4,31.8,21.8,29,18,11,29.98,29.88,14,6,16,0.00
2012-11-6,94.3,77.0,61.2,46.3,37.7,31.6,48,26,12,29.96,29.84,11,4,12,0.00
2012-11-7,93.0,74.7,59.2,52.2,42.3,34.5,55,34,15,29.91,29.75,10,3,12,0.00
2012-11-8,83.1,72.1,60.4,56.0,47.6,41.3,62,43,26,29.82,29.68,11,3,17,0.00
2012-11-9,73.8,65.6,56.1,54.5,48.3,38.7,72,55,38,29.81,29.67,19,9,22,0.00
2012-11-10,68.4,58.7,51.3,43.5,37.1,23.8,71,47,21,30.03,29.80,17,8,23,0.00
2012-11-11,68.4,57.4,45.7,37.3,24.1,14.9,67,31,15,30.25,30.03,17,6,17,0.02
2012-11-12,69.8,59.0,51.1,20.8,16.5,13.0,26,19,13,30.23,30.06,21,10,21,0.00
2012-11-13,76.6,63.4,50.0,29.9,19.3,13.7,38,19,12,30.11,29.96,16,6,19,0.00
2012-11-14,81.9,66.4,51.6,31.3,21.0,15.5,41,18,11,30.02,29.89,11,4,12,0.00
2012-11-15,70.2,65.1,60.3,41.2,24.7,17.7,39,22,15,30.03,29.91,9,4,11,0.00
2012-11-16,61.9,58.3,56.5,39.1,34.7,30.5,52,42,31,29.96,29.94,3,2,4,0.00
2012-11-20,83.7,67.1,51.8,51.4,44.5,39.3,82,47,22,30.05,29.89,10,3,10,0.00
2012-11-21,83.5,66.0,51.1,53.9,45.1,39.1,82,50,22,29.98,29.85,5,2,5,0.00
2012-11-22,82.6,66.8,53.8,44.9,40.2,34.0,65,41,18,30.02,29.90,11,5,11,0.00
2012-11-23,83.3,70.2,58.1,43.1,37.0,29.1,53,32,15,30.10,29.97,18,6,18,0.00
2012-11-24,86.4,73.4,62.1,40.4,32.3,25.2,37,23,14,30.00,29.82,17,6,17,0.00
2012-11-25,84.6,70.3,60.3,57.2,40.1,28.0,82,35,21,29.85,29.72,10,4,10,0.00
2012-11-26,84.0,67.6,55.9,60.1,55.8,50.2,90,69,33,29.97,29.80,8,2,8,0.00
2012-11-27,83.1,68.9,55.0,51.6,37.4,30.3,75,35,16,30.05,29.91,12,4,14,0.00
2012-11-28,80.6,62.5,52.5,55.1,43.7,37.0,73,51,32,30.07,29.94,6,3,8,0.00
2012-11-29,81.3,66.9,54.5,61.0,56.0,52.1,94,70,42,30.10,29.96,4,2,8,0.00
2012-11-30,80.6,68.7,57.6,59.1,55.3,52.8,85,64,43,30.03,29.93,8,3,12,0.00
2012-12-1,81.9,67.7,55.6,59.1,54.3,50.6,89,65,35,30.02,29.90,9,2,11,0.00
2012-12-2,82.6,67.4,54.9,56.2,53.2,48.8,82,62,38,29.98,29.88,10,3,14,0.00
2012-12-3,79.7,68.0,58.1,59.0,54.4,51.7,82,63,43,30.05,29.93,6,2,8,0.00
2012-12-4,82.0,68.8,58.1,54.0,51.4,46.4,79,56,29,30.13,30.01,12,4,12,0.00
2012-12-5,83.7,69.4,59.9,53.2,49.0,46.6,67,50,28,30.02,29.83,8,3,9,0.00
2012-12-6,80.4,66.5,55.6,50.7,47.2,43.3,78,52,28,29.84,29.71,11,4,15,0.00
2012-12-7,80.4,67.2,54.3,47.2,43.1,35.3,72,44,22,29.85,29.77,15,5,17,0.00
2012-12-8,79.2,65.1,50.5,41.1,33.4,26.8,60,32,16,29.88,29.77,8,3,8,0.00
2012-12-9,77.2,62.8,49.6,39.2,30.4,20.5,57,33,14,30.06,29.83,18,6,20,0.00
2012-12-10,70.0,60.6,51.3,32.4,22.6,17.1,48,24,14,30.12,29.96,21,9,24,0.00
2012-12-11,74.1,60.1,47.3,35.6,27.1,20.8,59,31,14,30.01,29.86,13,5,16,0.00
2012-12-12,75.6,60.3,47.3,50.0,36.2,21.4,65,42,23,29.90,29.74,15,6,17,0.00
2012-12-13,72.0,59.8,52.7,54.8,48.0,33.9,98,68,38,29.76,29.57,20,8,22,0.43
2012-12-14,65.3,56.1,48.2,52.5,47.2,42.0,99,74,45,29.90,29.62,12,5,14,0.00
2012-12-15,62.1,55.0,50.9,50.9,47.3,44.1,89,76,61,29.98,29.85,14,5,18,0.00
2012-12-16,65.5,55.3,45.1,48.3,45.5,43.3,95,72,47,30.10,29.95,9,3,11,0.00
2012-12-17,70.9,60.4,54.5,52.1,47.1,43.3,78,62,47,30.07,29.90,8,4,11,0.00
2012-12-18,70.7,59.2,50.5,58.6,48.4,38.5,89,69,47,29.90,29.65,17,6,26,0.01
2012-12-19,59.7,51.7,41.7,40.1,25.7,15.1,68,40,20,30.27,29.79,17,7,21,0.00
2012-12-20,60.1,51.3,42.6,28.6,23.1,16.3,51,34,23,30.28,30.09,18,10,19,0.00
2012-12-21,48.9,46.1,44.4,28.0,25.1,24.5,50,43,40,30.09,30.01,13,10,17,0.00
2012-12-22,45.7,45.7,45.7,24.5,24.5,24.5,43,43,43,30.04,30.04,11,11,13,0.00
2012-12-23,55.0,46.6,45.7,43.6,27.0,24.5,76,47,43,30.04,29.98,11,10,13,0.00
2012-12-24,71.8,58.6,48.9,51.7,45.6,41.9,80,64,38,29.99,29.81,11,5,14,0.00
2012-12-25,61.3,55.3,50.2,47.6,19.0,12.5,84,26,18,30.10,29.93,20,8,21,0.00
2012-12-26,67.8,53.4,42.3,41.5,27.7,17.5,72,40,17,29.93,29.77,9,4,11,0.00
2012-12-27,63.9,52.7,41.7,44.6,38.4,33.3,85,61,32,30.00,29.83,12,3,14,0.00
2012-12-28,64.9,52.6,39.7,36.6,29.9,23.9,81,45,22,30.11,30.00,12,5,17,0.00
2012-12-29,65.7,51.9,43.0,36.1,30.6,26.1,63,46,24,30.04,29.88,11,4,14,0.00
2012-12-30,62.6,51.8,43.2,45.4,38.3,33.2,82,61,34,29.92,29.78,15,5,17,0.00
2012-12-31,62.4,50.9,40.1,46.2,32.4,21.2,97,56,21,30.17,29.92,13,4,15,0.00
2013-1-1,59.0,49.5,41.5,26.2,22.2,16.6,51,35,23,30.20,30.09,15,7,17,0.00